Time;durP1;ratioP1;P1;durP2;ratioP2;P2;SDS_P1;SDS_P2;PMS_P1;PMS_P2;Temp;Humidity;BMP_temperature;BMP_pressure;BME280_temperature;BME280_humidity;BME280_pressure;Samples;Min_cycle;Max_cycle;Signal;HPM_P1;HPM_P2
2023/10/16 00:00:57;;;;;;;10.90;3.50;;;6.50;99.90;;;;;;5071001;28;20177;-52
2023/10/16 00:03:23;;;;;;;9.38;3.28;;;6.50;99.90;;;;;;5071183;28;20279;-51
2023/10/16 00:05:49;;;;;;;5.63;3.55;;;6.50;99.90;;;;;;5071365;28;20204;-49
2023/10/16 00:10:40;;;;;;;6.82;3.10;;;6.50;99.90;;;;;;5010379;28;20231;-58
2023/10/16 00:13:10;;;;;;;4.93;3.25;;;6.50;99.90;;;;;;5011117;28;20172;-61
2023/10/16 00:15:49;;;;;;;5.65;3.45;;;6.60;99.90;;;;;;5011207;28;20693;-58
2023/10/16 00:18:18;;;;;;;5.57;3.50;;;6.60;99.90;;;;;;5011059;28;20171;-57
2023/10/16 00:20:44;;;;;;;7.47;3.88;;;6.50;99.90;;;;;;5011432;28;20715;-57
2023/10/16 00:23:11;;;;;;;7.43;3.72;;;6.60;99.90;;;;;;5011122;28;20182;-59
2023/10/16 00:25:40;;;;;;;8.77;4.35;;;6.50;99.90;;;;;;5011277;28;20564;-58
2023/10/16 00:28:07;;;;;;;5.55;3.88;;;6.50;99.90;;;;;;5010894;28;20168;-56
2023/10/16 00:30:33;;;;;;;6.70;3.80;;;6.60;99.90;;;;;;5011012;28;20517;-57
2023/10/16 00:32:58;;;;;;;7.35;3.95;;;6.60;99.90;;;;;;5011442;28;20163;-56
2023/10/16 00:35:24;;;;;;;6.45;4.18;;;6.60;99.90;;;;;;5014280;28;20528;-56
2023/10/16 00:37:50;;;;;;;9.48;3.90;;;6.60;99.90;;;;;;5014369;28;20627;-56
2023/10/16 00:40:35;;;;;;;6.53;4.03;;;6.60;99.90;;;;;;5014625;28;20172;-56
2023/10/16 00:43:19;;;;;;;7.43;3.85;;;6.60;99.90;;;;;;5014913;28;20214;-56
2023/10/16 00:45:55;;;;;;;7.13;4.45;;;6.60;99.90;;;;;;5014554;28;20230;-56
2023/10/16 00:48:25;;;;;;;5.00;4.50;;;6.60;99.90;;;;;;5014269;28;20217;-56
2023/10/16 00:50:51;;;;;;;9.63;4.45;;;6.60;99.90;;;;;;5014108;28;20251;-56
2023/10/16 00:53:21;;;;;;;7.70;4.72;;;6.60;99.90;;;;;;5014081;28;20168;-57
2023/10/16 00:55:51;;;;;;;7.95;4.72;;;6.50;99.90;;;;;;5014301;28;20172;-56
2023/10/16 00:58:17;;;;;;;10.18;5.10;;;6.40;99.90;;;;;;5014418;28;20538;-57
2023/10/16 01:00:46;;;;;;;9.07;4.65;;;6.40;99.90;;;;;;5014082;28;20168;-56
2023/10/16 01:03:12;;;;;;;7.82;4.47;;;6.40;99.90;;;;;;5014004;28;20160;-56
2023/10/16 01:05:42;;;;;;;11.38;4.97;;;6.40;99.90;;;;;;5014224;28;20208;-56
2023/10/16 01:08:10;;;;;;;7.57;4.88;;;6.30;99.90;;;;;;5014095;28;20503;-56
2023/10/16 01:10:43;;;;;;;8.85;4.47;;;6.30;99.90;;;;;;5012453;28;20234;-59
2023/10/16 01:13:12;;;;;;;6.85;4.63;;;6.30;99.90;;;;;;5013907;28;20207;-55
2023/10/16 01:15:46;;;;;;;7.75;5.15;;;6.30;99.90;;;;;;5013736;28;20635;-55
2023/10/16 01:18:15;;;;;;;10.10;4.85;;;6.30;99.90;;;;;;5013641;28;20179;-57
2023/10/16 01:20:47;;;;;;;7.82;4.93;;;6.20;99.90;;;;;;5014099;28;20183;-56
2023/10/16 01:23:20;;;;;;;9.98;5.40;;;6.30;99.90;;;;;;5013645;28;20168;-56
2023/10/16 01:25:47;;;;;;;6.32;4.82;;;6.20;99.90;;;;;;5013539;28;20202;-56
2023/10/16 01:28:19;;;;;;;12.35;5.35;;;6.20;99.90;;;;;;5013520;28;20247;-57
2023/10/16 01:30:49;;;;;;;8.32;5.18;;;6.20;99.90;;;;;;5013412;28;20635;-57
2023/10/16 01:33:19;;;;;;;10.15;5.25;;;6.20;99.90;;;;;;5013439;28;20172;-57
2023/10/16 01:35:50;;;;;;;12.98;5.43;;;6.10;99.90;;;;;;5013608;28;20184;-56
2023/10/16 01:38:16;;;;;;;8.18;5.32;;;6.10;99.90;;;;;;5013576;28;20168;-56
2023/10/16 01:43:28;;;;;;;8.20;5.20;;;6.10;99.90;;;;;;5013952;28;20263;-59
2023/10/16 01:45:55;;;;;;;6.55;5.18;;;6.10;99.90;;;;;;5012630;28;20278;-56
2023/10/16 01:48:21;;;;;;;8.98;5.30;;;6.10;99.90;;;;;;5013337;28;20255;-58
2023/10/16 01:50:49;;;;;;;9.90;5.85;;;6.10;99.90;;;;;;5013047;28;20248;-57
2023/10/16 01:53:25;;;;;;;7.88;5.47;;;6.10;99.90;;;;;;5013243;28;20274;-57
2023/10/16 01:55:54;;;;;;;9.90;5.20;;;6.20;99.90;;;;;;5013274;28;20175;-56
2023/10/16 01:58:21;;;;;;;8.50;4.97;;;6.20;99.90;;;;;;5012995;28;20183;-57
2023/10/16 02:00:47;;;;;;;7.85;5.30;;;6.00;99.90;;;;;;5013009;28;20666;-56
2023/10/16 02:03:16;;;;;;;9.48;5.45;;;6.00;99.90;;;;;;5012991;28;20234;-57
2023/10/16 02:05:42;;;;;;;9.98;5.82;;;6.00;99.90;;;;;;5012973;28;20310;-60
2023/10/16 02:08:08;;;;;;;9.07;5.07;;;5.90;99.90;;;;;;5012878;28;20176;-61
2023/10/16 02:10:33;;;;;;;10.02;5.93;;;6.00;99.90;;;;;;5012544;28;20215;-59
2023/10/16 02:12:59;;;;;;;8.50;5.82;;;6.00;99.90;;;;;;5013090;28;20597;-59
2023/10/16 02:15:24;;;;;;;7.35;5.90;;;5.90;99.90;;;;;;5012754;28;20649;-59
2023/10/16 02:17:50;;;;;;;7.95;5.43;;;5.90;99.90;;;;;;5012630;28;20169;-60
2023/10/16 02:20:17;;;;;;;6.55;5.60;;;6.00;99.90;;;;;;5012587;28;20552;-62
2023/10/16 02:22:43;;;;;;;11.32;6.05;;;5.90;99.90;;;;;;5012598;28;20164;-61
2023/10/16 02:25:11;;;;;;;12.98;5.78;;;5.90;99.90;;;;;;5012564;28;20216;-59
2023/10/16 02:27:37;;;;;;;10.65;5.78;;;6.00;99.90;;;;;;5012640;28;20247;-60
2023/10/16 02:33:23;;;;;;;16.42;6.40;;;6.00;99.90;;;;;;5000557;28;20581;-61
2023/10/16 02:35:49;;;;;;;11.45;5.97;;;6.00;99.90;;;;;;5011152;28;20631;-59
2023/10/16 02:38:23;;;;;;;7.93;6.53;;;6.00;99.90;;;;;;5012528;28;20175;-61
2023/10/16 02:40:53;;;;;;;10.23;6.93;;;6.00;99.90;;;;;;5012197;28;20176;-62
2023/10/16 02:43:20;;;;;;;12.75;7.63;;;6.00;99.90;;;;;;5012109;28;20578;-61
2023/10/16 02:45:52;;;;;;;7.60;6.15;;;6.00;99.90;;;;;;5011987;28;20203;-61
2023/10/16 02:48:19;;;;;;;8.98;6.38;;;6.00;99.90;;;;;;5011940;28;20576;-61
2023/10/16 02:50:50;;;;;;;9.27;6.32;;;6.00;99.90;;;;;;5010779;28;20183;-59
2023/10/16 02:53:17;;;;;;;7.10;6.40;;;6.00;99.90;;;;;;5012288;28;20218;-62
2023/10/16 02:55:46;;;;;;;13.15;6.60;;;6.00;99.90;;;;;;5012058;28;20160;-59
2023/10/16 02:58:11;;;;;;;11.48;6.57;;;5.90;99.90;;;;;;5011142;28;20175;-60
2023/10/16 03:00:43;;;;;;;14.68;7.43;;;6.80;99.90;;;;;;5010653;28;20533;-61
2023/10/16 03:03:10;;;;;;;10.00;7.15;;;6.10;99.90;;;;;;5012048;28;20199;-62
2023/10/16 03:05:35;;;;;;;8.73;6.30;;;6.00;99.90;;;;;;5011996;28;20216;-62
2023/10/16 03:08:01;;;;;;;8.95;6.43;;;6.00;99.90;;;;;;5012150;28;20233;-62
2023/10/16 03:10:26;;;;;;;12.55;6.90;;;5.90;99.90;;;;;;5011598;28;20219;-62
2023/10/16 03:12:52;;;;;;;9.43;6.32;;;5.90;99.90;;;;;;5011675;28;20168;-63
2023/10/16 03:15:28;;;;;;;8.82;6.72;;;6.00;99.90;;;;;;5011487;28;20722;-63
2023/10/16 03:17:54;;;;;;;10.80;6.80;;;6.00;99.90;;;;;;5012263;28;20254;-62
2023/10/16 03:20:22;;;;;;;10.38;7.25;;;5.90;99.90;;;;;;5011583;28;20255;-61
2023/10/16 03:22:50;;;;;;;10.40;6.85;;;5.90;99.90;;;;;;5011482;28;20180;-60
2023/10/16 03:25:28;;;;;;;10.27;7.10;;;5.90;99.90;;;;;;5011475;28;20206;-61
2023/10/16 03:27:55;;;;;;;9.80;7.03;;;5.90;99.90;;;;;;5011659;28;20645;-60
2023/10/16 03:30:25;;;;;;;10.13;7.00;;;5.90;99.90;;;;;;5011574;28;20167;-59
2023/10/16 03:32:53;;;;;;;12.75;7.15;;;5.80;99.90;;;;;;5011499;28;20175;-61
2023/10/16 03:35:20;;;;;;;10.55;6.88;;;5.90;99.90;;;;;;5011874;28;20187;-61
2023/10/16 03:37:49;;;;;;;10.73;6.95;;;5.90;99.90;;;;;;5011368;28;20581;-62
2023/10/16 03:40:16;;;;;;;8.70;6.22;;;5.90;99.90;;;;;;5011655;28;20229;-62
2023/10/16 03:42:45;;;;;;;7.70;5.75;;;5.90;99.90;;;;;;5011599;28;20199;-60
2023/10/16 03:45:13;;;;;;;8.30;6.40;;;5.80;99.90;;;;;;5011349;28;20211;-62
2023/10/16 03:47:39;;;;;;;11.70;8.27;;;4.90;99.90;;;;;;5011366;28;20659;-62
2023/10/16 03:50:06;;;;;;;17.67;8.88;;;5.80;99.90;;;;;;5011486;28;20210;-62
2023/10/16 03:52:33;;;;;;;10.27;7.10;;;5.80;99.90;;;;;;5011992;28;20164;-62
2023/10/16 03:55:20;;;;;;;14.48;7.38;;;5.80;99.90;;;;;;5011959;28;20179;-61
2023/10/16 03:57:45;;;;;;;11.77;7.57;;;5.80;99.90;;;;;;5011190;28;20180;-61
2023/10/16 04:00:15;;;;;;;8.88;6.30;;;5.80;99.90;;;;;;5011308;28;20168;-62
2023/10/16 04:02:41;;;;;;;11.10;6.43;;;5.70;99.90;;;;;;5011513;28;20179;-61
2023/10/16 04:05:27;;;;;;;8.63;6.78;;;5.70;99.90;;;;;;5011307;28;20679;-60
2023/10/16 04:07:53;;;;;;;12.13;6.68;;;5.70;99.90;;;;;;5011186;28;20172;-59
2023/10/16 04:10:27;;;;;;;13.25;7.32;;;5.60;99.90;;;;;;5014707;28;20222;-60
2023/10/16 04:12:54;;;;;;;8.50;6.38;;;5.60;99.90;;;;;;5015224;28;20251;-59
2023/10/16 04:15:59;;;;;;;8.63;5.78;;;5.60;99.90;;;;;;5014825;28;20183;-56
2023/10/16 04:31:57;;;;;;;8.15;6.10;;;5.50;99.90;;;;;;5015257;28;20222;-56
2023/10/16 04:50:29;;;;;;;9.68;5.18;;;5.40;99.90;;;;;;5014379;28;20191;-55
2023/10/16 05:06:27;;;;;;;10.15;5.55;;;5.10;99.90;;;;;;5013774;28;20209;-56
2023/10/16 05:19:43;;;;;;;6.35;4.35;;;5.00;99.90;;;;;;5002927;28;20199;-58
2023/10/16 06:14:09;;;;;;;6.95;4.70;;;5.00;99.90;;;;;;5013071;28;20210;-56
2023/10/16 06:14:34;;;;;;;8.10;4.22;;;5.10;99.90;;;;;;5012556;28;20258;-58
2023/10/16 06:16:59;;;;;;;10.02;4.97;;;5.20;99.90;;;;;;5013292;28;20217;-56
2023/10/16 06:19:25;;;;;;;11.00;7.70;;;5.20;99.90;;;;;;5012388;28;20168;-59
2023/10/16 06:21:54;;;;;;;7.18;5.40;;;5.20;99.90;;;;;;5012409;28;20172;-59
2023/10/16 06:24:38;;;;;;;6.15;4.63;;;5.20;99.90;;;;;;5012278;28;20172;-56
2023/10/16 06:27:12;;;;;;;10.02;5.80;;;5.30;99.90;;;;;;5012579;28;20183;-56
2023/10/16 06:29:49;;;;;;;9.00;6.68;;;5.20;99.90;;;;;;5012408;28;20565;-57
2023/10/16 06:32:18;;;;;;;12.80;5.63;;;5.30;99.90;;;;;;5012081;28;20677;-57
2023/10/16 06:34:57;;;;;;;7.55;4.97;;;5.30;99.90;;;;;;5012394;28;20663;-60
2023/10/16 06:37:23;;;;;;;7.75;5.43;;;5.40;99.90;;;;;;5012287;28;20191;-61
2023/10/16 06:40:15;;;;;;;8.95;5.70;;;5.40;99.90;;;;;;5012232;28;20176;-62
2023/10/16 06:42:47;;;;;;;12.65;5.78;;;5.50;99.90;;;;;;5012379;28;20225;-61
2023/10/16 06:45:40;;;;;;;10.05;7.10;;;5.50;99.90;;;;;;5012099;28;20617;-62
2023/10/16 06:48:08;;;;;;;18.50;16.60;;;5.60;99.90;;;;;;5011998;28;20173;-61
2023/10/16 06:50:40;;;;;;;19.85;17.77;;;5.60;99.90;;;;;;5012304;28;20211;-59
2023/10/16 06:53:05;;;;;;;11.30;5.88;;;5.70;99.90;;;;;;5011969;28;20651;-62
2023/10/16 06:55:31;;;;;;;7.63;5.13;;;5.60;99.90;;;;;;5012671;28;20262;-60
2023/10/16 06:57:56;;;;;;;7.70;5.10;;;5.60;99.90;;;;;;5012118;28;20623;-61
2023/10/16 07:00:32;;;;;;;7.30;4.85;;;5.70;99.90;;;;;;5011919;28;20623;-59
2023/10/16 07:03:01;;;;;;;7.05;5.38;;;5.80;99.90;;;;;;5010986;28;20163;-60
2023/10/16 07:05:43;;;;;;;7.32;5.22;;;5.80;99.90;;;;;;5012340;28;20297;-59
2023/10/16 07:08:10;;;;;;;7.10;5.30;;;5.70;99.90;;;;;;5011907;28;20168;-61
2023/10/16 07:10:40;;;;;;;10.60;4.72;;;5.90;99.90;;;;;;5011633;28;20230;-61
2023/10/16 07:13:09;;;;;;;5.72;4.60;;;5.90;99.90;;;;;;5012007;28;20187;-61
2023/10/16 07:15:35;;;;;;;8.95;5.63;;;5.90;99.90;;;;;;5011873;28;20183;-59
2023/10/16 07:18:06;;;;;;;9.40;4.72;;;6.00;99.90;;;;;;5012339;28;20172;-62
2023/10/16 07:20:35;;;;;;;6.20;4.43;;;5.90;99.90;;;;;;5011624;28;20626;-59
2023/10/16 07:23:00;;;;;;;7.90;5.47;;;6.10;99.90;;;;;;5012052;28;20544;-60
2023/10/16 07:25:50;;;;;;;8.93;4.80;;;6.20;99.90;;;;;;5011564;28;20212;-61
2023/10/16 07:28:18;;;;;;;9.15;5.10;;;6.20;99.90;;;;;;5011507;28;20168;-61
2023/10/16 07:30:43;;;;;;;11.13;5.05;;;6.30;99.90;;;;;;5011560;28;20595;-61
2023/10/16 07:33:16;;;;;;;7.20;5.20;;;6.30;99.90;;;;;;5011498;28;20169;-61
2023/10/16 07:35:48;;;;;;;11.02;4.93;;;6.40;99.90;;;;;;5011806;28;20172;-59
2023/10/16 07:38:21;;;;;;;9.60;5.63;;;6.40;99.90;;;;;;5010293;28;20514;-60
2023/10/16 07:40:54;;;;;;;9.68;5.10;;;6.40;99.90;;;;;;5011409;28;20642;-60
2023/10/16 07:43:46;;;;;;;11.70;6.32;;;6.60;99.90;;;;;;5012088;28;20187;-60
2023/10/16 07:48:47;;;;;;;11.43;6.40;;;6.70;99.90;;;;;;5015325;28;20182;-61
2023/10/16 07:51:16;;;;;;;8.68;5.10;;;6.80;99.90;;;;;;5015299;28;20168;-61
2023/10/16 07:53:42;;;;;;;9.95;5.10;;;6.80;99.90;;;;;;5015289;28;20195;-58
2023/10/16 07:58:56;;;;;;;8.82;5.65;;;7.00;99.90;;;;;;5015261;28;20167;-60
2023/10/16 08:04:19;;;;;;;11.35;5.53;;;7.20;99.90;;;;;;5015358;28;20222;-56
2023/10/16 08:06:47;;;;;;;6.90;4.25;;;7.10;99.90;;;;;;5015262;28;20280;-60
2023/10/16 08:12:12;;;;;;;11.05;5.43;;;7.40;99.90;;;;;;5015156;28;20178;-60
2023/10/16 08:14:41;;;;;;;11.98;5.50;;;7.70;99.90;;;;;;5015169;28;20172;-58
2023/10/16 08:17:23;;;;;;;7.10;4.80;;;7.60;99.90;;;;;;5015158;28;20177;-59
2023/10/16 08:19:50;;;;;;;9.40;4.90;;;7.80;99.90;;;;;;5015170;28;20176;-57
2023/10/16 08:22:16;;;;;;;7.78;4.80;;;8.00;99.90;;;;;;5014729;28;20172;-58
2023/10/16 08:24:57;;;;;;;8.20;4.78;;;8.10;99.90;;;;;;5014879;28;20203;-57
2023/10/16 08:27:40;;;;;;;10.65;4.95;;;8.30;99.90;;;;;;5015012;28;20172;-59
2023/10/16 08:33:09;;;;;;;4.95;3.95;;;8.60;99.90;;;;;;5002835;28;20279;-61
2023/10/16 08:35:38;;;;;;;8.57;4.65;;;8.60;99.90;;;;;;5014755;28;20176;-60
2023/10/16 08:38:13;;;;;;;16.13;4.85;;;8.70;99.90;;;;;;5014302;28;20230;-60
2023/10/16 08:40:45;;;;;;;8.13;4.28;;;8.90;99.90;;;;;;5013094;28;20210;-59
2023/10/16 08:43:17;;;;;;;9.30;4.43;;;8.90;99.90;;;;;;5014325;28;20210;-59
2023/10/16 08:45:49;;;;;;;8.85;4.88;;;8.90;99.90;;;;;;5014249;28;20663;-61
2023/10/16 08:48:19;;;;;;;10.10;4.63;;;9.10;99.90;;;;;;5014410;28;20176;-61
2023/10/16 08:50:57;;;;;;;7.70;4.57;;;9.20;99.90;;;;;;5014417;28;20187;-59
2023/10/16 08:53:32;;;;;;;7.13;4.40;;;9.20;99.90;;;;;;5014149;28;20168;-60
2023/10/16 08:56:08;;;;;;;9.82;4.70;;;12.10;99.90;;;;;;5014663;28;20164;-60
2023/10/16 08:58:43;;;;;;;10.18;4.25;;;9.50;99.90;;;;;;5014074;28;20195;-60
2023/10/16 09:01:09;;;;;;;8.32;4.10;;;9.40;99.90;;;;;;5014009;28;20164;-60
2023/10/16 09:03:50;;;;;;;8.88;5.22;;;9.50;99.90;;;;;;5013597;28;20243;-59
2023/10/16 09:06:22;;;;;;;9.95;4.47;;;9.70;99.90;;;;;;5013682;28;20231;-58
2023/10/16 09:08:51;;;;;;;9.75;5.03;;;9.80;99.90;;;;;;5013793;28;20546;-60
2023/10/16 09:11:19;;;;;;;8.90;4.68;;;9.80;99.90;;;;;;5013630;28;20251;-61
2023/10/16 09:13:50;;;;;;;12.73;5.95;;;9.80;99.90;;;;;;5014037;28;20164;-61
2023/10/16 09:16:15;;;;;;;12.25;5.18;;;10.00;99.90;;;;;;5013682;28;20673;-61
2023/10/16 09:18:42;;;;;;;10.57;5.05;;;10.00;99.90;;;;;;5013626;28;20180;-62
2023/10/16 09:21:13;;;;;;;9.02;5.47;;;10.10;99.90;;;;;;5013800;28;20172;-61
2023/10/16 09:23:51;;;;;;;11.48;6.10;;;10.10;99.90;;;;;;5013611;28;20207;-61
2023/10/16 09:26:17;;;;;;;12.05;6.43;;;10.10;99.90;;;;;;5013471;28;20208;-55
2023/10/16 09:28:42;;;;;;;10.23;6.47;;;10.30;99.90;;;;;;5013424;28;20187;-61
2023/10/16 09:31:08;;;;;;;11.18;6.18;;;10.40;99.90;;;;;;5013273;28;20180;-61
2023/10/16 09:33:35;;;;;;;11.82;6.35;;;10.50;99.90;;;;;;5012021;28;20168;-62
2023/10/16 09:36:17;;;;;;;12.95;6.53;;;10.40;99.90;;;;;;5014090;28;20251;-61
2023/10/16 09:38:51;;;;;;;9.77;6.28;;;10.40;99.90;;;;;;5013515;28;20172;-60
2023/10/16 09:44:06;;;;;;;10.90;7.07;;;10.40;99.90;;;;;;5013537;28;20262;-59
2023/10/16 09:49:13;;;;;;;10.85;6.70;;;10.50;99.90;;;;;;5013126;28;20242;-59
2023/10/16 09:51:39;;;;;;;10.98;6.25;;;10.60;99.90;;;;;;5012993;28;20663;-57
2023/10/16 09:54:08;;;;;;;15.18;7.40;;;10.80;99.90;;;;;;5012894;28;20168;-59
2023/10/16 09:56:41;;;;;;;14.75;7.20;;;10.80;99.90;;;;;;5012670;28;20184;-57
2023/10/16 09:59:12;;;;;;;16.60;8.13;;;11.00;99.90;;;;;;5012898;28;20191;-57
2023/10/16 10:01:48;;;;;;;13.60;8.40;;;11.10;99.90;;;;;;5012800;28;20519;-59
2023/10/16 10:04:19;;;;;;;12.55;8.00;;;11.40;99.90;;;;;;5012700;28;20172;-61
2023/10/16 10:06:51;;;;;;;15.25;8.43;;;11.40;99.90;;;;;;5011795;28;20168;-58
2023/10/16 10:12:13;;;;;;;16.58;9.80;;;11.40;99.90;;;;;;5012942;28;20255;-56
2023/10/16 10:14:48;;;;;;;16.67;11.25;;;11.50;99.90;;;;;;5012530;28;20266;-59
2023/10/16 10:17:20;;;;;;;23.45;14.32;;;11.50;99.90;;;;;;5012481;28;20177;-58
2023/10/16 10:19:54;;;;;;;13.98;10.25;;;11.70;99.90;;;;;;5012793;28;20295;-55
2023/10/16 10:22:27;;;;;;;18.40;11.30;;;11.70;99.90;;;;;;5012654;28;20168;-55
2023/10/16 10:25:24;;;;;;;23.88;14.65;;;11.80;99.90;;;;;;5012274;28;20202;-54
2023/10/16 10:27:53;;;;;;;43.22;32.40;;;11.80;99.90;;;;;;5012351;28;20183;-64
2023/10/16 10:30:28;;;;;;;20.08;10.80;;;11.90;99.90;;;;;;5012579;28;20173;-62
2023/10/16 10:32:57;;;;;;;18.38;12.50;;;11.80;99.90;;;;;;5012410;28;20214;-58
2023/10/16 10:35:31;;;;;;;19.77;12.35;;;11.80;99.90;;;;;;5012274;28;20687;-60
2023/10/16 10:38:24;;;;;;;18.75;10.65;;;11.80;99.90;;;;;;5012338;28;20226;-58
2023/10/16 10:41:11;;;;;;;19.80;13.25;;;11.90;99.90;;;;;;5012015;28;20277;-65
2023/10/16 10:43:46;;;;;;;20.17;10.70;;;11.80;99.90;;;;;;5011798;28;20160;-62
2023/10/16 10:46:34;;;;;;;13.50;10.65;;;11.80;99.90;;;;;;5010387;28;20290;-67
2023/10/16 10:49:01;;;;;;;19.38;13.93;;;11.90;99.90;;;;;;5012439;28;20191;-60
2023/10/16 10:51:34;;;;;;;22.40;11.77;;;12.00;99.90;;;;;;5011862;28;20263;-55
2023/10/16 10:54:00;;;;;;;18.10;12.77;;;11.70;99.90;;;;;;5012592;28;20183;-54
2023/10/16 10:56:41;;;;;;;24.58;17.77;;;11.90;99.90;;;;;;5011939;28;20160;-55
2023/10/16 10:59:10;;;;;;;20.77;14.80;;;12.10;99.90;;;;;;5011857;28;20647;-54
2023/10/16 11:01:44;;;;;;;23.10;13.65;;;12.20;99.90;;;;;;5011738;28;20176;-56
2023/10/16 11:04:15;;;;;;;16.95;9.35;;;12.40;99.90;;;;;;5011975;28;20245;-55
2023/10/16 11:06:52;;;;;;;12.98;9.55;;;12.40;99.90;;;;;;5012021;28;20212;-55
2023/10/16 11:09:18;;;;;;;30.10;14.77;;;12.30;99.90;;;;;;5011706;28;20311;-56
2023/10/16 11:11:48;;;;;;;20.35;11.57;;;12.40;99.90;;;;;;5011233;28;20518;-58
2023/10/16 11:14:15;;;;;;;10.85;8.55;;;12.40;99.90;;;;;;5011651;28;20251;-54
2023/10/16 11:16:48;;;;;;;33.55;20.80;;;12.50;99.90;;;;;;5011770;28;20195;-56
2023/10/16 11:19:23;;;;;;;17.20;11.93;;;12.60;99.90;;;;;;5010990;28;20266;-55
2023/10/16 11:21:49;;;;;;;22.00;12.65;;;12.60;99.90;;;;;;5011794;28;20167;-54
2023/10/16 11:24:15;;;;;;;11.15;7.15;;;12.50;99.90;;;;;;5010363;28;20627;-56
2023/10/16 11:26:45;;;;;;;24.23;14.40;;;12.50;99.90;;;;;;5010089;28;20216;-55
2023/10/16 11:29:16;;;;;;;14.10;6.68;;;12.70;99.90;;;;;;5011954;28;20176;-61
2023/10/16 11:31:44;;;;;;;11.55;6.50;;;12.80;99.90;;;;;;5011348;28;20168;-55
2023/10/16 11:34:21;;;;;;;27.02;17.65;;;12.70;99.90;;;;;;5011549;28;20199;-53
2023/10/16 11:36:50;;;;;;;39.33;24.13;;;12.80;99.90;;;;;;5011338;28;20176;-52
2023/10/16 11:39:20;;;;;;;15.55;10.10;;;12.80;99.90;;;;;;5012077;28;20176;-55
2023/10/16 11:41:46;;;;;;;15.05;8.60;;;12.80;99.90;;;;;;5011358;28;20171;-60
2023/10/16 11:44:16;;;;;;;19.50;13.20;;;12.80;99.90;;;;;;5011228;28;20654;-58
2023/10/16 11:46:52;;;;;;;13.85;7.78;;;12.90;99.90;;;;;;5010140;28;20290;-59
2023/10/16 11:51:55;;;;;;;8.48;5.72;;;12.90;99.90;;;;;;5011458;28;20179;-57
2023/10/16 11:54:23;;;;;;;11.23;6.95;;;12.80;99.90;;;;;;5011034;28;20175;-59
2023/10/16 11:56:59;;;;;;;13.05;7.55;;;12.90;99.90;;;;;;5011018;28;20206;-59
2023/10/16 11:59:26;;;;;;;39.25;26.33;;;12.80;99.90;;;;;;5011497;28;20164;-59
2023/10/16 12:01:52;;;;;;;9.52;7.05;;;12.90;99.90;;;;;;5011253;28;20247;-59
2023/10/16 12:04:19;;;;;;;9.73;5.97;;;13.10;99.90;;;;;;5011169;28;20164;-59
2023/10/16 12:06:47;;;;;;;10.48;6.45;;;13.20;99.90;;;;;;5011154;28;20646;-60
2023/10/16 12:09:13;;;;;;;10.05;6.20;;;13.20;99.90;;;;;;5011045;28;20235;-57
2023/10/16 12:11:42;;;;;;;11.95;6.78;;;13.10;99.90;;;;;;5010554;28;20168;-59
2023/10/16 12:14:14;;;;;;;11.13;7.60;;;13.20;99.90;;;;;;5010922;28;20168;-59
2023/10/16 12:16:45;;;;;;;11.80;7.00;;;12.90;99.90;;;;;;5010647;28;20170;-59
2023/10/16 12:19:16;;;;;;;13.85;7.50;;;12.70;99.90;;;;;;5011295;28;20188;-59
2023/10/16 12:21:43;;;;;;;14.15;6.70;;;12.60;99.90;;;;;;5011091;28;20250;-59
2023/10/16 12:24:13;;;;;;;10.40;6.22;;;12.20;99.90;;;;;;5010746;28;20177;-59
2023/10/16 12:26:40;;;;;;;9.13;6.47;;;12.40;99.90;;;;;;5010417;28;20297;-59
2023/10/16 12:29:08;;;;;;;11.32;6.00;;;12.30;99.90;;;;;;5010986;28;20175;-59
2023/10/16 12:31:34;;;;;;;10.90;5.75;;;12.30;99.90;;;;;;5014623;28;20180;-56
2023/10/16 12:34:02;;;;;;;9.65;6.88;;;12.20;99.90;;;;;;5014594;28;20164;-58
2023/10/16 12:36:29;;;;;;;10.50;7.97;;;12.20;99.90;;;;;;5014604;28;20172;-59
2023/10/16 12:38:57;;;;;;;10.95;5.15;;;12.20;99.90;;;;;;5013879;28;20242;-57
2023/10/16 12:41:23;;;;;;;66.38;43.72;;;12.10;99.90;;;;;;5014130;28;20247;-59
2023/10/16 12:43:54;;;;;;;7.97;4.70;;;12.30;99.90;;;;;;5014234;28;20266;-59
2023/10/16 12:46:20;;;;;;;11.65;6.45;;;12.40;99.90;;;;;;5014058;28;20562;-58
2023/10/16 12:48:45;;;;;;;19.52;11.23;;;12.50;99.90;;;;;;5013834;28;20621;-58
2023/10/16 12:51:12;;;;;;;11.90;6.82;;;11.00;99.90;;;;;;5014059;28;20640;-58
2023/10/16 12:53:38;;;;;;;18.80;7.85;;;12.50;99.90;;;;;;5013716;28;20191;-58
2023/10/16 12:56:05;;;;;;;10.27;4.97;;;12.50;99.90;;;;;;5013803;28;20599;-58
2023/10/16 12:58:34;;;;;;;7.90;3.70;;;12.60;99.90;;;;;;5013333;28;20172;-56
2023/10/16 13:01:10;;;;;;;7.20;3.35;;;12.60;99.90;;;;;;5014185;28;20211;-58
2023/10/16 13:03:36;;;;;;;7.60;3.92;;;12.60;99.90;;;;;;5013485;28;20168;-58
2023/10/16 13:06:11;;;;;;;11.15;3.80;;;12.60;99.90;;;;;;5013592;28;20216;-59
2023/10/16 13:08:37;;;;;;;7.55;4.05;;;12.50;99.90;;;;;;5012744;28;20172;-59
2023/10/16 13:11:02;;;;;;;8.52;4.15;;;12.60;99.90;;;;;;5013541;28;20231;-56
2023/10/16 13:13:28;;;;;;;14.25;8.65;;;12.60;99.90;;;;;;5013784;28;20172;-58
2023/10/16 13:15:58;;;;;;;11.63;4.82;;;12.60;99.90;;;;;;5013528;28;20226;-59
2023/10/16 13:18:27;;;;;;;6.55;3.80;;;12.50;99.90;;;;;;5013919;28;20180;-59
2023/10/16 13:21:12;;;;;;;9.38;4.90;;;12.50;99.90;;;;;;5013848;28;20175;-56
2023/10/16 13:23:39;;;;;;;9.68;5.05;;;12.40;99.90;;;;;;5013705;28;20195;-55
2023/10/16 13:26:08;;;;;;;6.22;4.22;;;12.40;99.90;;;;;;5012194;28;20659;-55
2023/10/16 13:28:38;;;;;;;6.85;4.18;;;12.50;99.90;;;;;;5012793;28;20695;-55
2023/10/16 13:31:04;;;;;;;8.55;4.22;;;12.40;99.90;;;;;;5012788;28;20251;-55
2023/10/16 13:33:33;;;;;;;4.32;3.80;;;12.40;99.90;;;;;;5013522;28;20303;-55
2023/10/16 13:36:04;;;;;;;9.32;4.75;;;12.40;99.90;;;;;;5013429;28;20180;-55
2023/10/16 13:38:31;;;;;;;8.82;5.65;;;12.40;99.90;;;;;;5013512;28;20246;-55
2023/10/16 13:40:57;;;;;;;10.80;5.80;;;12.30;99.90;;;;;;5012687;28;20666;-55
2023/10/16 13:43:23;;;;;;;7.78;5.38;;;12.30;99.90;;;;;;5012255;28;20176;-55
2023/10/16 13:45:52;;;;;;;9.18;5.28;;;12.40;99.90;;;;;;5012836;28;20208;-55
2023/10/16 13:48:21;;;;;;;12.82;8.85;;;12.40;99.90;;;;;;5013040;28;20243;-57
2023/10/16 13:50:47;;;;;;;11.20;6.15;;;12.40;99.90;;;;;;5012730;28;20176;-56
2023/10/16 13:53:13;;;;;;;8.32;5.88;;;12.30;99.90;;;;;;5012657;28;20182;-54
2023/10/16 13:55:39;;;;;;;8.70;5.07;;;12.40;99.90;;;;;;5012476;28;20176;-56
2023/10/16 13:58:05;;;;;;;9.02;6.15;;;12.30;99.90;;;;;;5012181;28;20168;-55
2023/10/16 14:00:35;;;;;;;9.32;5.85;;;13.00;99.90;;;;;;5010811;28;20174;-56
2023/10/16 14:05:47;;;;;;;7.03;5.32;;;12.30;99.90;;;;;;5012899;28;20662;-55
2023/10/16 14:08:17;;;;;;;11.27;5.90;;;12.40;99.90;;;;;;5012830;28;20171;-54
2023/10/16 14:10:52;;;;;;;11.18;5.60;;;12.30;99.90;;;;;;5012403;28;20224;-55
2023/10/16 14:13:21;;;;;;;8.63;5.30;;;12.30;99.90;;;;;;5013235;28;20250;-55
2023/10/16 14:15:49;;;;;;;12.65;6.13;;;12.30;99.90;;;;;;5012895;28;20488;-55
2023/10/16 14:18:16;;;;;;;10.15;5.68;;;12.30;99.90;;;;;;5012786;28;20172;-56
2023/10/16 14:20:45;;;;;;;8.98;4.93;;;12.30;99.90;;;;;;5012429;28;20164;-55
2023/10/16 14:23:15;;;;;;;11.32;5.22;;;12.30;99.90;;;;;;5012435;28;20642;-57
2023/10/16 14:25:57;;;;;;;9.95;5.40;;;12.40;99.90;;;;;;5012644;28;20290;-57
2023/10/16 14:30:55;;;;;;;10.45;6.28;;;12.30;99.90;;;;;;5012308;28;20598;-58
2023/10/16 14:33:28;;;;;;;15.32;8.15;;;12.30;99.90;;;;;;5012284;28;20546;-57
2023/10/16 14:35:54;;;;;;;13.35;6.70;;;12.20;99.90;;;;;;5012426;28;20168;-57
2023/10/16 14:38:19;;;;;;;11.63;8.25;;;12.20;99.90;;;;;;5012278;28;20164;-58
2023/10/16 14:40:46;;;;;;;14.45;9.15;;;12.20;99.90;;;;;;5012103;28;20176;-57
2023/10/16 14:43:15;;;;;;;16.52;9.68;;;12.20;99.90;;;;;;5012265;28;20172;-57
2023/10/16 14:45:41;;;;;;;12.88;8.18;;;12.10;99.90;;;;;;5012193;28;20215;-57
2023/10/16 14:48:09;;;;;;;12.48;7.55;;;12.10;99.90;;;;;;5012000;28;20172;-57
2023/10/16 14:50:35;;;;;;;10.98;6.57;;;12.10;99.90;;;;;;5012150;28;20544;-57
2023/10/16 14:53:01;;;;;;;25.73;14.70;;;12.00;99.90;;;;;;5011729;28;20179;-57
2023/10/16 14:55:27;;;;;;;9.38;6.05;;;12.00;99.90;;;;;;5010829;28;20175;-58
2023/10/16 14:57:55;;;;;;;9.18;5.30;;;12.00;99.90;;;;;;5011897;28;20210;-57
2023/10/16 15:00:28;;;;;;;16.58;9.07;;;12.00;99.90;;;;;;5012204;28;20171;-57
2023/10/16 15:02:55;;;;;;;18.85;8.68;;;12.00;99.90;;;;;;5011869;28;20320;-57
2023/10/16 15:05:21;;;;;;;11.95;4.88;;;12.00;99.90;;;;;;5011892;28;20975;-57
2023/10/16 15:07:47;;;;;;;5.93;4.13;;;12.00;99.90;;;;;;5010846;28;20534;-57
2023/10/16 15:10:13;;;;;;;12.18;7.05;;;12.10;99.90;;;;;;5011641;28;20215;-57
2023/10/16 15:12:39;;;;;;;17.10;8.10;;;12.00;99.90;;;;;;5011756;28;20176;-56
2023/10/16 15:15:08;;;;;;;9.38;5.90;;;11.90;99.90;;;;;;5011702;28;20247;-57
2023/10/16 15:17:38;;;;;;;9.45;3.85;;;11.90;99.90;;;;;;5011765;28;20251;-56
2023/10/16 15:20:07;;;;;;;23.02;14.57;;;11.90;99.90;;;;;;5011865;28;20178;-57
2023/10/16 15:22:37;;;;;;;7.95;4.35;;;12.00;99.90;;;;;;5011690;28;20179;-56